Latest Weather Observations for Toowoomba

IDQ60901

Issued at 8:31 pm EST Thursday 19 September 2019 (issued every 10 minutes, with the page automatically refreshed every 10 minutes)

About weather observations | Map of Brisbane area stations | Latest observations for Brisbane area | Other Formats
Station Details ID: 041529 Name: TOOWOOMBA AIRPORT Lat: -27.54 Lon: 151.91 Height: 640.9 m
Data from the previous 72 hours. | See also: Recent months at Toowoomba
Date/Time
EST
Temp
°C
App
Temp
°C
Dew
Point
°C
Rel
Hum
%
Delta-T
°C
Wind Press
QNH
hPa
Press
MSL
hPa
Rain since
9am
mm
Dir  Spd
km/h
Gust
km/h
Spd
kts
Gust
kts
19/08:30pm 14.6 9.2 12.1 85 1.4 E 32 44 17 24 1024.7 1023.0 0.0
19/08:00pm 15.2 9.6 12.0 81 1.8 E 33 46 18 25 1024.6 1022.9 0.0
19/07:30pm 15.7 9.6 11.7 77 2.2 E 35 43 19 23 1024.5 1022.8 0.0
19/07:00pm 16.4 10.6 11.6 73 2.7 ESE 33 41 18 22 1024.1 1022.4 0.0
19/06:30pm 17.2 11.3 11.2 68 3.3 E 33 43 18 23 1023.7 1021.9 0.0
19/06:00pm 18.0 12.0 10.9 63 3.9 E 33 41 18 22 1023.2 1021.5 0.0
19/05:30pm 19.6 14.3 9.8 53 5.4 E 28 35 15 19 1023.1 1021.4 0.0
19/05:00pm 21.0 15.7 8.3 44 6.8 E 26 37 14 20 1022.8 1021.1 0.0
19/04:30pm 22.1 16.6 4.2 31 9.0 E 22 30 12 16 1022.4 1020.6 0.0
19/04:00pm 22.9 17.6 4.9 31 9.2 ESE 22 30 12 16 1022.4 1020.6 0.0
19/03:30pm 22.9 18.0 5.3 32 9.1 E 20 30 11 16 1022.3 1020.5 0.0
19/03:00pm 23.2 19.4 5.6 32 9.1 E 15 20 8 11 1022.4 1020.6 0.0
19/02:30pm 22.9 19.2 6.2 34 8.8 ENE 15 22 8 12 1022.4 1020.6 0.0
19/02:00pm 23.7 19.8 7.3 35 8.8 E 17 24 9 13 1022.6 1020.8 0.0
19/01:30pm 22.4 19.2 7.0 37 8.2 ENE 13 19 7 10 1022.9 1021.2 0.0
19/01:00pm 22.8 19.3 7.4 37 8.2 ENE 15 26 8 14 1023.1 1021.4 0.0
19/12:30pm 21.6 18.1 7.1 39 7.7 ESE 15 26 8 14 1023.4 1021.7 0.0
19/12:00pm 21.3 17.3 8.2 43 7.0 E 19 28 10 15 1023.7 1021.9 0.0
19/11:30am 21.2 17.7 8.8 45 6.8 E 17 30 9 16 1024.2 1022.5 0.0
19/11:00am 20.0 16.9 8.7 48 6.1 ENE 15 24 8 13 1024.8 1023.1 0.0
19/10:30am 19.0 15.1 8.6 51 5.6 ENE 19 24 10 13 1025.3 1023.5 0.0
19/10:00am 18.6 14.8 9.1 54 5.1 E 19 24 10 13 1025.6 1023.9 0.0
19/09:30am 16.7 12.6 8.7 59 4.2 ENE 20 28 11 15 1025.8 1024.1 0.0
19/09:00am 16.7 12.0 9.4 62 3.9 E 24 32 13 17 1025.8 1024.1 0.0
19/08:30am 15.6 10.5 9.1 65 3.5 ENE 26 30 14 16 1025.8 1024.1 0.0
19/08:00am 15.2 10.7 8.7 65 3.4 E 22 30 12 16 1025.7 1024.0 0.0
19/07:30am 13.9 9.1 8.9 72 2.6 ENE 24 30 13 16 1025.6 1023.9 0.0
19/07:00am 12.9 8.5 8.8 76 2.1 E 22 28 12 15 1025.4 1023.6 0.0
19/06:30am 12.0 7.2 8.8 81 1.7 E 24 28 13 15 1025.0 1023.3 0.0
19/06:00am 10.9 6.8 8.7 86 1.1 E 20 24 11 13 1024.8 1023.1 0.0
19/05:30am 10.8 6.7 8.7 87 1.1 E 20 24 11 13 1024.6 1022.9 0.0
19/05:00am 10.7 6.7 9.0 89 0.9 E 20 24 11 13 1024.5 1022.8 0.0
19/04:30am 10.6 6.8 9.0 90 0.8 E 19 20 10 11 1024.1 1022.4 0.0
19/04:00am 10.2 6.7 8.8 91 0.7 E 17 20 9 11 1023.9 1022.1 0.0
19/03:30am 10.5 7.0 8.6 88 1.0 E 17 20 9 11 1023.8 1022.0 0.0
19/03:00am 10.3 7.0 8.2 87 1.1 E 15 17 8 9 1023.9 1022.1 0.0
19/02:30am 10.4 7.4 7.8 84 1.3 E 13 19 7 10 1024.0 1022.2 0.0
19/02:00am 11.1 6.9 8.3 83 1.4 E 20 30 11 16 1024.0 1022.2 0.0
19/01:30am 11.4 6.6 8.8 84 1.3 E 24 35 13 19 1024.0 1022.2 0.0
19/01:00am 11.3 5.9 8.0 80 1.7 ESE 26 32 14 17 1023.8 1022.0 0.0
19/12:30am 11.3 5.8 7.6 78 1.9 ESE 26 32 14 17 1024.0 1022.2 0.0
19/12:00am 11.5 5.4 6.8 73 2.3 ESE 28 33 15 18 1024.1 1022.4 0.0
 
Date/Time
EST
Temp
°C
App
Temp
°C
Dew
Point
°C
Rel
Hum
%
Delta-T
°C
Wind Press
QNH
hPa
Press
MSL
hPa
Rain since
9am
mm
Dir  Spd
km/h
Gust
km/h
Spd
kts
Gust
kts
18/11:30pm 11.9 5.8 6.6 70 2.6 ESE 28 35 15 19 1024.0 1022.2 0.0
18/11:00pm 12.0 5.0 5.9 66 2.9 ESE 32 37 17 20 1023.9 1022.1 0.0
18/10:30pm 12.2 4.9 4.7 60 3.6 ESE 32 35 17 19 1023.7 1021.9 0.0
18/10:00pm 12.6 5.5 3.8 55 4.1 E 30 35 16 19 1023.6 1021.8 0.0
18/09:30pm 13.1 5.9 2.9 50 4.7 ESE 30 37 16 20 1023.4 1021.7 0.0
18/09:00pm 13.7 6.5 3.2 49 4.9 ESE 30 35 16 19 1023.3 1021.6 0.0
18/08:30pm 14.3 8.0 3.5 48 5.1 E 26 32 14 17 1023.1 1021.4 0.0
18/08:00pm 15.2 12.3 2.7 43 5.8 SE 7 11 4 6 1022.7 1021.0 0.0
18/07:30pm 16.8 13.9 2.4 38 6.7 SSE 7 11 4 6 1022.5 1020.7 0.0
18/07:00pm 17.2 15.6 2.4 37 6.9 CALM 0 6 0 3 1022.3 1020.5 0.0
18/06:30pm 17.9 15.1 2.2 35 7.4 S 6 9 3 5 1022.2 1020.4 0.0
18/06:00pm 18.4 14.7 2.3 34 7.6 SW 11 15 6 8 1022.0 1020.2 0.0
18/05:30pm 19.6 15.5 2.0 31 8.3 SW 13 19 7 10 1021.7 1020.0 0.0
18/05:00pm 20.3 15.4 2.2 30 8.6 WSW 17 22 9 12 1021.2 1019.4 0.0
18/04:30pm 20.6 16.4 1.5 28 9.0 WSW 13 24 7 13 1020.9 1019.1 0.0
18/04:00pm 20.9 15.8 0.7 26 9.4 SW 17 24 9 13 1020.8 1019.0 0.0
18/03:30pm 21.0 15.8 0.2 25 9.6 WSW 17 32 9 17 1020.6 1018.8 0.0
18/03:00pm 20.4 15.1 -0.8 24 9.6 SW 17 24 9 13 1020.4 1018.6 0.0
18/02:30pm 21.1 16.2 -0.8 23 9.9 SW 15 26 8 14 1020.4 1018.6 0.0
18/02:00pm 20.6 15.0 -2.5 21 10.1 WSW 17 24 9 13 1020.3 1018.5 0.0
18/01:30pm 20.1 14.9 -5.7 17 10.5 WSW 13 24 7 13 1020.5 1018.7 0.0
18/01:00pm 20.1 15.0 -2.3 22 9.8 WSW 15 24 8 13 1020.7 1018.9 0.0
18/12:30pm 19.8 14.5 -0.8 25 9.3 WSW 17 26 9 14 1020.8 1019.0 0.0
18/12:00pm 18.2 11.8 -4.5 21 9.3 WSW 20 28 11 15 1020.9 1019.1 0.0
18/11:30am 17.7 12.3 1.2 33 7.6 WSW 19 24 10 13 1021.2 1019.4 0.0
18/11:00am 15.9 10.3 0.9 36 6.7 WSW 20 32 11 17 1021.6 1019.9 0.0
18/10:30am 14.9 9.0 1.4 40 6.1 WSW 22 28 12 15 1022.1 1020.3 0.0
18/10:00am 13.9 7.9 1.2 42 5.6 W 22 28 12 15 1022.4 1020.6 0.0
18/09:30am 12.5 6.1 0.9 45 5.1 W 24 32 13 17 1022.6 1020.8 0.0
18/09:00am 11.9 5.7 2.4 52 4.3 W 24 32 13 17 1022.4 1020.6 0.6
18/08:30am 10.8 4.6 2.4 56 3.7 WSW 24 30 13 16 1022.5 1020.7 0.6
18/08:00am 9.6 3.7 5.6 76 1.9 W 26 32 14 17 1022.6 1020.8 0.6
18/07:30am 9.1 4.1 6.4 83 1.3 W 22 28 12 15 1022.3 1020.5 0.6
18/07:00am 7.6 3.1 5.9 89 0.8 W 19 24 10 13 1022.2 1020.4 0.6
18/06:30am 6.7 2.9 5.8 94 0.4 WNW 15 20 8 11 1021.6 1019.9 0.6
18/06:00am 6.2 2.7 5.3 94 0.4 WNW 13 17 7 9 1021.2 1019.4 0.6
18/05:30am 6.4 2.9 5.4 93 0.5 WNW 13 17 7 9 1021.0 1019.2 0.6
18/05:00am 6.6 3.0 5.1 90 0.7 WNW 13 17 7 9 1020.6 1018.8 0.6
18/04:30am 7.0 3.3 4.7 85 1.0 NW 13 17 7 9 1020.0 1018.3 0.6
18/04:00am 7.6 4.0 5.2 85 1.1 NW 13 17 7 9 1019.9 1018.2 0.6
18/03:30am 7.8 4.4 4.2 78 1.6 W 11 15 6 8 1019.8 1018.0 0.6
18/03:00am 8.7 4.2 4.3 74 2.0 WSW 17 22 9 12 1019.7 1017.9 0.6
18/02:30am 9.4 5.0 2.9 64 2.9 SW 15 19 8 10 1019.9 1018.2 0.6
18/02:00am 10.2 6.7 3.3 62 3.1 WSW 11 15 6 8 1020.1 1018.4 0.6
18/01:30am 10.6 6.7 3.2 60 3.3 SW 13 17 7 9 1020.1 1018.4 0.6
18/01:00am 11.0 6.7 3.3 59 3.5 SW 15 20 8 11 1020.3 1018.5 0.6
18/12:30am 11.3 7.0 3.3 58 3.6 SW 15 20 8 11 1020.4 1018.6 0.6
18/12:00am 12.1 7.9 3.6 56 3.9 SW 15 20 8 11 1020.5 1018.7 0.6
 
Date/Time
EST
Temp
°C
App
Temp
°C
Dew
Point
°C
Rel
Hum
%
Delta-T
°C
Wind Press
QNH
hPa
Press
MSL
hPa
Rain since
9am
mm
Dir  Spd
km/h
Gust
km/h
Spd
kts
Gust
kts
17/11:30pm 12.4 8.2 3.9 56 4.0 SW 15 20 8 11 1020.4 1018.6 0.6
17/11:00pm 13.0 8.5 4.2 55 4.1 SSW 17 20 9 11 1020.4 1018.6 0.6
17/10:30pm 13.4 9.3 4.3 54 4.3 SW 15 19 8 10 1020.5 1018.7 0.6
17/10:00pm 14.4 9.6 4.4 51 4.8 SW 19 26 10 14 1020.4 1018.6 0.6
17/09:30pm 15.9 11.5 4.9 48 5.4 WSW 17 22 9 12 1020.1 1018.4 0.6
17/09:13pm 16.5 12.1 4.9 46 5.7 W 17 22 9 12 1020.3 1018.5 0.6
17/09:01pm 16.6 12.2 4.6 45 5.9 W 17 22 9 12 1020.3 1018.5 0.6
17/09:00pm 16.7 12.3 4.7 45 5.9 W 17 22 9 12 1020.3 1018.5 0.6
17/08:34pm 17.6 12.8 4.6 42 6.4 WSW 19 26 10 14 1020.0 1018.3 0.6
17/08:30pm 17.6 12.8 4.6 42 6.4 WSW 19 24 10 13 1019.9 1018.2 0.6
17/08:04pm 18.6 13.3 4.8 40 6.9 SW 22 30 12 16 1019.8 1018.0 0.6
17/08:00pm 18.7 13.7 4.8 40 6.9 SW 20 28 11 15 1019.7 1017.9 0.6
17/07:30pm 19.1 16.4 7.2 46 6.2 SE 11 19 6 10 1019.0 1017.2 0.6
17/07:00pm 19.8 16.8 3.9 35 7.8 SSE 9 13 5 7 1018.4 1016.6 0.6
17/06:30pm 20.2 13.8 3.4 33 8.2 SW 26 37 14 20 1017.4 1015.6 0.6
17/06:00pm 21.4 17.2 3.6 31 8.8 NNW 15 26 8 14 1016.3 1014.5 0.6
17/05:30pm 21.8 18.5 4.8 33 8.6 NNW 11 20 6 11 1016.5 1014.7 0.6
17/05:00pm 20.1 14.9 5.7 39 7.4 SW 22 35 12 19 1016.3 1014.5 0.6
17/04:30pm 21.7 16.6 6.0 36 8.2 SW 22 37 12 20 1015.8 1014.0 0.6
17/04:08pm 22.2 16.9 5.2 33 8.7 WNW 22 54 12 29 1015.5 1013.6 0.0
17/04:00pm 25.7 20.4 -0.4 18 12.4 NW 17 24 9 13 1015.0 1013.2 0.0
17/03:30pm 26.6 20.0 -0.4 17 12.9 NW 24 37 13 20 1014.6 1012.8 0.0
17/03:00pm 27.0 19.2 -0.9 16 13.2 NW 30 43 16 23 1014.8 1013.0 0.0
17/02:30pm 27.7 20.1 -2.2 14 13.9 NW 28 43 15 23 1015.3 1013.4 0.0
17/02:00pm 26.8 19.8 -0.3 17 13.0 NW 26 37 14 20 1015.6 1013.7 0.0
17/01:30pm 28.3 21.0 0.1 16 13.7 NW 28 41 15 22 1016.0 1014.2 0.0
17/01:11pm 27.6 20.2 -0.5 16 13.5 NW 28 46 15 25 1016.4 1014.6 0.0
17/01:00pm 27.3 20.6 1.7 19 12.7 WNW 26 39 14 21 1016.5 1014.7 0.0
17/12:30pm 26.9 20.2 3.4 22 12.0 WNW 28 41 15 22 1017.2 1015.4 0.0
17/12:00pm 25.9 19.7 4.4 25 11.1 WNW 26 39 14 21 1017.6 1015.8 0.0
17/11:30am 26.2 20.3 4.1 24 11.4 NW 24 35 13 19 1018.1 1016.3 0.0
17/11:00am 25.7 19.5 4.2 25 11.1 NW 26 39 14 21 1018.6 1016.8 0.0
17/10:30am 24.0 17.8 4.4 28 10.0 NW 26 37 14 20 1019.0 1017.2 0.0
17/10:00am 23.6 17.5 5.0 30 9.6 NW 26 33 14 18 1019.4 1017.6 0.0
17/09:30am 22.2 16.8 6.4 36 8.3 NW 24 33 13 18 1019.5 1017.7 0.0
17/09:00am 20.4 15.2 7.1 42 7.0 NW 24 33 13 18 1019.6 1017.8 0.0
17/08:30am 19.4 14.0 6.2 42 6.8 NW 24 35 13 19 1019.7 1017.9 0.0
17/08:00am 19.0 13.6 6.2 43 6.5 NW 24 35 13 19 1019.6 1017.8 0.0
17/07:30am 17.3 13.0 7.1 51 5.3 NNW 19 24 10 13 1019.6 1017.8 0.0
17/07:00am 16.3 12.4 7.0 54 4.7 N 17 20 9 11 1019.3 1017.5 0.0
17/06:30am 15.9 12.4 7.1 56 4.5 N 15 20 8 11 1018.9 1017.1 0.0
17/06:00am 15.0 11.5 7.1 59 4.0 N 15 19 8 10 1018.4 1016.6 0.0
17/05:30am 15.0 11.5 7.1 59 4.0 N 15 19 8 10 1018.3 1016.5 0.0
17/05:00am 14.9 11.8 7.2 60 3.9 N 13 19 7 10 1018.2 1016.4 0.0
17/04:30am 15.0 12.0 7.5 61 3.8 N 13 17 7 9 1018.0 1016.2 0.0
17/04:00am 15.1 12.1 7.6 61 3.8 N 13 17 7 9 1017.9 1016.1 0.0
17/03:30am 15.5 12.2 8.0 61 3.9 N 15 19 8 10 1017.9 1016.1 0.0
17/03:00am 15.7 12.4 8.2 61 3.9 N 15 19 8 10 1018.0 1016.2 0.0
17/02:30am 16.2 13.0 8.4 60 4.1 N 15 20 8 11 1018.4 1016.6 0.0
17/02:00am 16.1 13.2 8.1 59 4.2 N 13 20 7 11 1018.9 1017.1 0.0
17/01:30am 16.1 13.2 8.1 59 4.2 N 13 20 7 11 1019.4 1017.6 0.0
17/01:00am 16.5 13.1 7.7 56 4.6 N 15 20 8 11 1019.6 1017.8 0.0
17/12:30am 16.8 13.0 7.4 54 4.9 N 17 24 9 13 1019.7 1017.9 0.0
17/12:00am 16.9 12.6 7.0 52 5.1 N 19 28 10 15 1019.8 1018.0 0.0
 
Date/Time
EST
Temp
°C
App
Temp
°C
Dew
Point
°C
Rel
Hum
%
Delta-T
°C
Wind Press
QNH
hPa
Press
MSL
hPa
Rain since
9am
mm
Dir  Spd
km/h
Gust
km/h
Spd
kts
Gust
kts
16/11:30pm 17.6 13.9 6.5 48 5.7 N 15 19 8 10 1019.9 1018.2 0.0
16/11:00pm 16.9 14.2 7.5 54 4.9 NE 11 15 6 8 1019.9 1018.2 0.0
16/10:30pm 17.0 14.0 7.6 54 4.9 NE 13 17 7 9 1020.1 1018.4 0.0
16/10:00pm 17.6 13.7 3.5 39 6.8 NE 13 17 7 9 1020.1 1018.4 0.0
16/09:30pm 19.7 15.4 -2.0 23 9.5 N 11 13 6 7 1020.1 1018.4 0.0
16/09:00pm 20.1 15.8 -1.7 23 9.6 N 11 13 6 7 1020.4 1018.6 0.0

Latest Capital City Observations: Canberra | Sydney | Melbourne | Brisbane | Adelaide | Perth | Hobart | Darwin

Other formats

Comma delimited format used in spreadsheet applications
http://www.bom.gov.au/fwo/IDQ60901/IDQ60901.95551.axf

JavaScript Object Notation format (JSON) in row-major order
http://www.bom.gov.au/fwo/IDQ60901/IDQ60901.95551.json

Data quality

Most of these data are generated automatically and are frequently updated. Quality checks on data are not normally performed. It is possible for incorrect values to appear. Refer to information at About Latest Weather Observations and please check the disclaimer before using these data.